sensor_id;sensor_type;location;lat;lon;timestamp;P1;durP1;ratioP1;P2;durP2;ratioP2
840;SDS011;406;48.566;13.450;2023-11-21T00:02:17;10.10;;;6.43;;
840;SDS011;406;48.566;13.450;2023-11-21T00:04:44;8.37;;;6.57;;
840;SDS011;406;48.566;13.450;2023-11-21T00:07:10;6.80;;;5.30;;
840;SDS011;406;48.566;13.450;2023-11-21T00:09:37;11.93;;;5.63;;
840;SDS011;406;48.566;13.450;2023-11-21T00:12:03;6.25;;;5.20;;
840;SDS011;406;48.566;13.450;2023-11-21T00:14:30;8.27;;;5.50;;
840;SDS011;406;48.566;13.450;2023-11-21T00:16:57;12.20;;;6.97;;
840;SDS011;406;48.566;13.450;2023-11-21T00:19:25;7.07;;;5.53;;
840;SDS011;406;48.566;13.450;2023-11-21T00:21:52;6.50;;;5.63;;
840;SDS011;406;48.566;13.450;2023-11-21T00:24:18;6.53;;;5.70;;
840;SDS011;406;48.566;13.450;2023-11-21T00:26:45;10.55;;;5.97;;
840;SDS011;406;48.566;13.450;2023-11-21T00:29:11;9.20;;;6.20;;
840;SDS011;406;48.566;13.450;2023-11-21T00:31:38;7.67;;;5.77;;
840;SDS011;406;48.566;13.450;2023-11-21T00:34:05;6.80;;;5.30;;
840;SDS011;406;48.566;13.450;2023-11-21T00:36:33;9.30;;;6.13;;
840;SDS011;406;48.566;13.450;2023-11-21T00:38:59;10.13;;;6.27;;
840;SDS011;406;48.566;13.450;2023-11-21T00:41:27;7.83;;;6.50;;
840;SDS011;406;48.566;13.450;2023-11-21T00:43:54;8.30;;;5.97;;
840;SDS011;406;48.566;13.450;2023-11-21T00:46:21;10.27;;;5.80;;
840;SDS011;406;48.566;13.450;2023-11-21T00:48:47;7.90;;;6.17;;
840;SDS011;406;48.566;13.450;2023-11-21T00:51:15;6.93;;;5.90;;
840;SDS011;406;48.566;13.450;2023-11-21T00:53:42;8.03;;;5.80;;
840;SDS011;406;48.566;13.450;2023-11-21T00:56:09;9.10;;;6.13;;
840;SDS011;406;48.566;13.450;2023-11-21T00:58:35;8.83;;;6.53;;
840;SDS011;406;48.566;13.450;2023-11-21T01:01:02;8.57;;;6.30;;
840;SDS011;406;48.566;13.450;2023-11-21T01:03:29;7.47;;;5.73;;
840;SDS011;406;48.566;13.450;2023-11-21T01:05:56;7.73;;;6.00;;
840;SDS011;406;48.566;13.450;2023-11-21T01:08:23;6.17;;;5.33;;
840;SDS011;406;48.566;13.450;2023-11-21T01:10:50;6.93;;;6.13;;
840;SDS011;406;48.566;13.450;2023-11-21T01:13:17;7.37;;;6.43;;
840;SDS011;406;48.566;13.450;2023-11-21T01:15:44;8.03;;;5.83;;
840;SDS011;406;48.566;13.450;2023-11-21T01:18:11;7.90;;;5.33;;
840;SDS011;406;48.566;13.450;2023-11-21T01:20:38;9.70;;;5.87;;
840;SDS011;406;48.566;13.450;2023-11-21T01:23:05;7.80;;;5.10;;
840;SDS011;406;48.566;13.450;2023-11-21T01:25:31;6.17;;;4.40;;
840;SDS011;406;48.566;13.450;2023-11-21T01:27:58;7.50;;;5.13;;
840;SDS011;406;48.566;13.450;2023-11-21T01:30:24;7.03;;;6.10;;
840;SDS011;406;48.566;13.450;2023-11-21T01:32:51;8.63;;;6.90;;
840;SDS011;406;48.566;13.450;2023-11-21T01:35:18;9.17;;;6.70;;
840;SDS011;406;48.566;13.450;2023-11-21T01:37:45;7.03;;;5.40;;
840;SDS011;406;48.566;13.450;2023-11-21T01:40:12;7.67;;;5.40;;
840;SDS011;406;48.566;13.450;2023-11-21T01:42:41;6.60;;;5.70;;
840;SDS011;406;48.566;13.450;2023-11-21T01:45:10;6.17;;;4.90;;
840;SDS011;406;48.566;13.450;2023-11-21T01:47:39;6.18;;;5.28;;
840;SDS011;406;48.566;13.450;2023-11-21T01:50:08;6.43;;;5.27;;
840;SDS011;406;48.566;13.450;2023-11-21T01:52:35;6.00;;;5.40;;
840;SDS011;406;48.566;13.450;2023-11-21T01:55:02;6.20;;;4.97;;
840;SDS011;406;48.566;13.450;2023-11-21T01:57:29;8.70;;;5.30;;
840;SDS011;406;48.566;13.450;2023-11-21T01:59:56;7.23;;;5.50;;
840;SDS011;406;48.566;13.450;2023-11-21T02:02:25;6.80;;;5.90;;
840;SDS011;406;48.566;13.450;2023-11-21T02:04:51;8.67;;;6.80;;
840;SDS011;406;48.566;13.450;2023-11-21T02:07:18;10.83;;;6.00;;
840;SDS011;406;48.566;13.450;2023-11-21T02:09:45;7.17;;;5.73;;
840;SDS011;406;48.566;13.450;2023-11-21T02:12:12;8.07;;;5.90;;
840;SDS011;406;48.566;13.450;2023-11-21T02:14:39;8.93;;;5.87;;
840;SDS011;406;48.566;13.450;2023-11-21T02:17:05;7.30;;;5.17;;
840;SDS011;406;48.566;13.450;2023-11-21T02:19:32;10.20;;;5.50;;
840;SDS011;406;48.566;13.450;2023-11-21T02:22:00;7.77;;;6.30;;
840;SDS011;406;48.566;13.450;2023-11-21T02:24:29;11.30;;;5.37;;
840;SDS011;406;48.566;13.450;2023-11-21T02:26:56;15.10;;;6.30;;
840;SDS011;406;48.566;13.450;2023-11-21T02:29:23;6.90;;;5.43;;
840;SDS011;406;48.566;13.450;2023-11-21T02:31:54;7.97;;;5.90;;
840;SDS011;406;48.566;13.450;2023-11-21T02:34:21;6.13;;;5.10;;
840;SDS011;406;48.566;13.450;2023-11-21T02:36:49;6.40;;;5.60;;
840;SDS011;406;48.566;13.450;2023-11-21T02:39:18;7.70;;;5.50;;
840;SDS011;406;48.566;13.450;2023-11-21T02:41:48;5.93;;;4.63;;
840;SDS011;406;48.566;13.450;2023-11-21T02:44:15;10.13;;;5.57;;
840;SDS011;406;48.566;13.450;2023-11-21T02:46:41;9.03;;;6.07;;
840;SDS011;406;48.566;13.450;2023-11-21T02:49:08;7.70;;;6.10;;
840;SDS011;406;48.566;13.450;2023-11-21T02:51:36;7.30;;;5.70;;
840;SDS011;406;48.566;13.450;2023-11-21T02:54:05;8.30;;;5.00;;
840;SDS011;406;48.566;13.450;2023-11-21T02:56:34;8.33;;;5.60;;
840;SDS011;406;48.566;13.450;2023-11-21T02:59:02;5.47;;;4.97;;
840;SDS011;406;48.566;13.450;2023-11-21T03:01:28;6.40;;;5.10;;
840;SDS011;406;48.566;13.450;2023-11-21T03:03:55;8.30;;;6.70;;
840;SDS011;406;48.566;13.450;2023-11-21T03:06:23;6.90;;;5.90;;
840;SDS011;406;48.566;13.450;2023-11-21T03:08:49;10.60;;;6.50;;
840;SDS011;406;48.566;13.450;2023-11-21T03:11:17;8.80;;;7.40;;
840;SDS011;406;48.566;13.450;2023-11-21T03:13:44;8.10;;;6.73;;
840;SDS011;406;48.566;13.450;2023-11-21T03:16:11;8.60;;;7.13;;
840;SDS011;406;48.566;13.450;2023-11-21T03:18:39;7.43;;;6.63;;
840;SDS011;406;48.566;13.450;2023-11-21T03:21:06;9.77;;;6.13;;
840;SDS011;406;48.566;13.450;2023-11-21T03:23:35;7.57;;;6.70;;
840;SDS011;406;48.566;13.450;2023-11-21T03:26:02;12.40;;;7.10;;
840;SDS011;406;48.566;13.450;2023-11-21T03:28:29;12.03;;;6.50;;
840;SDS011;406;48.566;13.450;2023-11-21T03:30:56;10.23;;;7.27;;
840;SDS011;406;48.566;13.450;2023-11-21T03:33:23;10.27;;;6.90;;
840;SDS011;406;48.566;13.450;2023-11-21T03:35:50;9.63;;;6.90;;
840;SDS011;406;48.566;13.450;2023-11-21T03:38:17;9.00;;;6.83;;
840;SDS011;406;48.566;13.450;2023-11-21T03:40:44;8.00;;;6.87;;
840;SDS011;406;48.566;13.450;2023-11-21T03:43:10;11.00;;;7.10;;
840;SDS011;406;48.566;13.450;2023-11-21T03:45:37;18.80;;;8.40;;
840;SDS011;406;48.566;13.450;2023-11-21T03:48:07;8.07;;;5.80;;
840;SDS011;406;48.566;13.450;2023-11-21T03:50:36;8.63;;;6.30;;
840;SDS011;406;48.566;13.450;2023-11-21T03:53:04;8.30;;;7.03;;
840;SDS011;406;48.566;13.450;2023-11-21T03:55:31;11.00;;;7.73;;
840;SDS011;406;48.566;13.450;2023-11-21T03:57:58;7.33;;;5.77;;
840;SDS011;406;48.566;13.450;2023-11-21T04:00:25;6.07;;;5.30;;
840;SDS011;406;48.566;13.450;2023-11-21T04:02:53;7.13;;;5.60;;
840;SDS011;406;48.566;13.450;2023-11-21T04:05:20;7.60;;;5.60;;
840;SDS011;406;48.566;13.450;2023-11-21T04:07:49;6.50;;;5.70;;
840;SDS011;406;48.566;13.450;2023-11-21T04:10:16;5.50;;;4.90;;
840;SDS011;406;48.566;13.450;2023-11-21T04:12:43;13.33;;;6.63;;
840;SDS011;406;48.566;13.450;2023-11-21T04:15:10;7.23;;;5.27;;
840;SDS011;406;48.566;13.450;2023-11-21T04:17:37;6.10;;;5.13;;
840;SDS011;406;48.566;13.450;2023-11-21T04:20:05;6.83;;;5.40;;
840;SDS011;406;48.566;13.450;2023-11-21T04:22:41;8.00;;;5.80;;
840;SDS011;406;48.566;13.450;2023-11-21T04:25:15;9.23;;;5.13;;
840;SDS011;406;48.566;13.450;2023-11-21T04:27:43;7.00;;;5.20;;
840;SDS011;406;48.566;13.450;2023-11-21T04:30:10;11.90;;;5.93;;
840;SDS011;406;48.566;13.450;2023-11-21T04:32:38;7.27;;;5.63;;
840;SDS011;406;48.566;13.450;2023-11-21T04:35:05;6.70;;;5.57;;
840;SDS011;406;48.566;13.450;2023-11-21T04:37:32;8.80;;;6.20;;
840;SDS011;406;48.566;13.450;2023-11-21T04:39:59;7.17;;;5.20;;
840;SDS011;406;48.566;13.450;2023-11-21T04:42:25;8.17;;;5.60;;
840;SDS011;406;48.566;13.450;2023-11-21T04:44:52;8.30;;;6.40;;
840;SDS011;406;48.566;13.450;2023-11-21T04:47:18;12.43;;;5.70;;
840;SDS011;406;48.566;13.450;2023-11-21T04:49:46;8.17;;;5.90;;
840;SDS011;406;48.566;13.450;2023-11-21T04:52:15;7.47;;;6.70;;
840;SDS011;406;48.566;13.450;2023-11-21T04:54:42;7.90;;;5.70;;
840;SDS011;406;48.566;13.450;2023-11-21T04:57:09;8.93;;;6.27;;
840;SDS011;406;48.566;13.450;2023-11-21T04:59:35;9.33;;;6.73;;
840;SDS011;406;48.566;13.450;2023-11-21T05:02:02;7.97;;;6.73;;
840;SDS011;406;48.566;13.450;2023-11-21T05:04:29;10.60;;;7.20;;
840;SDS011;406;48.566;13.450;2023-11-21T05:06:56;8.53;;;6.33;;
840;SDS011;406;48.566;13.450;2023-11-21T05:09:22;7.90;;;6.37;;
840;SDS011;406;48.566;13.450;2023-11-21T05:11:49;8.80;;;6.50;;
840;SDS011;406;48.566;13.450;2023-11-21T05:14:16;7.90;;;5.50;;
840;SDS011;406;48.566;13.450;2023-11-21T05:16:43;8.73;;;5.93;;
840;SDS011;406;48.566;13.450;2023-11-21T05:19:10;7.43;;;6.03;;
840;SDS011;406;48.566;13.450;2023-11-21T05:21:38;8.63;;;6.30;;
840;SDS011;406;48.566;13.450;2023-11-21T05:24:04;8.03;;;6.30;;
840;SDS011;406;48.566;13.450;2023-11-21T05:26:31;9.80;;;6.20;;
840;SDS011;406;48.566;13.450;2023-11-21T05:28:58;9.27;;;6.50;;
840;SDS011;406;48.566;13.450;2023-11-21T05:31:24;7.43;;;6.13;;
840;SDS011;406;48.566;13.450;2023-11-21T05:33:51;7.40;;;6.30;;
840;SDS011;406;48.566;13.450;2023-11-21T05:36:17;7.43;;;6.30;;
840;SDS011;406;48.566;13.450;2023-11-21T05:38:44;7.93;;;6.90;;
840;SDS011;406;48.566;13.450;2023-11-21T05:41:12;8.30;;;6.57;;
840;SDS011;406;48.566;13.450;2023-11-21T05:43:39;8.63;;;6.73;;
840;SDS011;406;48.566;13.450;2023-11-21T05:46:06;7.97;;;5.83;;
840;SDS011;406;48.566;13.450;2023-11-21T05:48:33;8.73;;;6.33;;
840;SDS011;406;48.566;13.450;2023-11-21T05:51:00;7.10;;;6.27;;
840;SDS011;406;48.566;13.450;2023-11-21T05:53:28;8.57;;;6.60;;
840;SDS011;406;48.566;13.450;2023-11-21T05:55:55;7.63;;;6.53;;
840;SDS011;406;48.566;13.450;2023-11-21T05:58:22;9.13;;;6.87;;
840;SDS011;406;48.566;13.450;2023-11-21T06:00:49;9.67;;;7.67;;
840;SDS011;406;48.566;13.450;2023-11-21T06:03:15;9.10;;;7.43;;
840;SDS011;406;48.566;13.450;2023-11-21T06:05:43;9.40;;;6.20;;
840;SDS011;406;48.566;13.450;2023-11-21T06:08:10;9.70;;;7.47;;
840;SDS011;406;48.566;13.450;2023-11-21T06:10:36;7.73;;;6.60;;
840;SDS011;406;48.566;13.450;2023-11-21T06:13:03;9.70;;;6.90;;
840;SDS011;406;48.566;13.450;2023-11-21T06:15:31;8.43;;;7.20;;
840;SDS011;406;48.566;13.450;2023-11-21T06:17:57;9.10;;;6.20;;
840;SDS011;406;48.566;13.450;2023-11-21T06:20:25;8.23;;;6.27;;
840;SDS011;406;48.566;13.450;2023-11-21T06:22:51;9.20;;;6.97;;
840;SDS011;406;48.566;13.450;2023-11-21T06:25:18;10.53;;;7.30;;
840;SDS011;406;48.566;13.450;2023-11-21T06:27:46;9.70;;;6.77;;
840;SDS011;406;48.566;13.450;2023-11-21T06:30:16;11.43;;;6.53;;
840;SDS011;406;48.566;13.450;2023-11-21T06:32:45;9.30;;;6.60;;
840;SDS011;406;48.566;13.450;2023-11-21T06:35:14;8.70;;;6.70;;
840;SDS011;406;48.566;13.450;2023-11-21T06:37:42;10.63;;;6.80;;
840;SDS011;406;48.566;13.450;2023-11-21T06:40:14;9.57;;;6.93;;
840;SDS011;406;48.566;13.450;2023-11-21T06:42:45;9.30;;;6.07;;
840;SDS011;406;48.566;13.450;2023-11-21T06:45:13;11.33;;;6.70;;
840;SDS011;406;48.566;13.450;2023-11-21T06:47:41;8.63;;;6.37;;
840;SDS011;406;48.566;13.450;2023-11-21T06:50:08;7.33;;;6.13;;
840;SDS011;406;48.566;13.450;2023-11-21T06:52:34;7.60;;;5.60;;
840;SDS011;406;48.566;13.450;2023-11-21T06:55:01;7.67;;;6.37;;
840;SDS011;406;48.566;13.450;2023-11-21T06:57:28;9.20;;;6.93;;
840;SDS011;406;48.566;13.450;2023-11-21T06:59:54;11.50;;;6.63;;
840;SDS011;406;48.566;13.450;2023-11-21T07:02:26;14.57;;;6.50;;
840;SDS011;406;48.566;13.450;2023-11-21T07:04:54;9.27;;;7.23;;
840;SDS011;406;48.566;13.450;2023-11-21T07:07:20;7.77;;;5.33;;
840;SDS011;406;48.566;13.450;2023-11-21T07:09:47;10.43;;;7.23;;
840;SDS011;406;48.566;13.450;2023-11-21T07:12:15;8.83;;;6.83;;
840;SDS011;406;48.566;13.450;2023-11-21T07:14:41;16.13;;;8.03;;
840;SDS011;406;48.566;13.450;2023-11-21T07:17:11;9.90;;;7.30;;
840;SDS011;406;48.566;13.450;2023-11-21T07:19:38;10.13;;;7.37;;
840;SDS011;406;48.566;13.450;2023-11-21T07:22:05;7.90;;;7.10;;
840;SDS011;406;48.566;13.450;2023-11-21T07:24:32;9.27;;;7.00;;
840;SDS011;406;48.566;13.450;2023-11-21T07:26:58;10.90;;;7.10;;
840;SDS011;406;48.566;13.450;2023-11-21T07:29:25;9.50;;;6.07;;
840;SDS011;406;48.566;13.450;2023-11-21T07:31:52;7.30;;;6.20;;
840;SDS011;406;48.566;13.450;2023-11-21T07:34:20;12.60;;;7.37;;
840;SDS011;406;48.566;13.450;2023-11-21T07:36:47;9.60;;;7.60;;
840;SDS011;406;48.566;13.450;2023-11-21T07:39:13;7.30;;;6.40;;
840;SDS011;406;48.566;13.450;2023-11-21T07:41:42;12.53;;;8.23;;
840;SDS011;406;48.566;13.450;2023-11-21T07:44:18;8.63;;;7.37;;
840;SDS011;406;48.566;13.450;2023-11-21T07:46:46;11.77;;;7.77;;
840;SDS011;406;48.566;13.450;2023-11-21T07:49:12;12.50;;;8.10;;
840;SDS011;406;48.566;13.450;2023-11-21T07:51:47;9.90;;;7.60;;
840;SDS011;406;48.566;13.450;2023-11-21T07:54:14;10.40;;;7.87;;
840;SDS011;406;48.566;13.450;2023-11-21T07:56:40;10.03;;;8.23;;
840;SDS011;406;48.566;13.450;2023-11-21T07:59:07;10.43;;;8.03;;
840;SDS011;406;48.566;13.450;2023-11-21T08:01:33;14.93;;;8.33;;
840;SDS011;406;48.566;13.450;2023-11-21T08:04:00;11.83;;;8.17;;
840;SDS011;406;48.566;13.450;2023-11-21T08:06:30;10.03;;;8.13;;
840;SDS011;406;48.566;13.450;2023-11-21T08:08:57;10.13;;;8.00;;
840;SDS011;406;48.566;13.450;2023-11-21T08:11:23;11.27;;;8.87;;
840;SDS011;406;48.566;13.450;2023-11-21T08:13:50;10.63;;;8.33;;
840;SDS011;406;48.566;13.450;2023-11-21T08:16:16;14.53;;;8.87;;
840;SDS011;406;48.566;13.450;2023-11-21T08:18:43;9.53;;;7.77;;
840;SDS011;406;48.566;13.450;2023-11-21T08:21:11;11.43;;;8.20;;
840;SDS011;406;48.566;13.450;2023-11-21T08:23:39;14.93;;;8.67;;
840;SDS011;406;48.566;13.450;2023-11-21T08:26:05;12.17;;;8.73;;
840;SDS011;406;48.566;13.450;2023-11-21T08:28:32;13.70;;;9.70;;
840;SDS011;406;48.566;13.450;2023-11-21T08:31:00;10.63;;;7.77;;
840;SDS011;406;48.566;13.450;2023-11-21T08:33:27;12.20;;;8.70;;
840;SDS011;406;48.566;13.450;2023-11-21T08:35:54;10.83;;;7.77;;
840;SDS011;406;48.566;13.450;2023-11-21T08:38:20;9.70;;;8.23;;
840;SDS011;406;48.566;13.450;2023-11-21T08:40:47;12.83;;;8.20;;
840;SDS011;406;48.566;13.450;2023-11-21T08:43:13;14.10;;;8.67;;
840;SDS011;406;48.566;13.450;2023-11-21T08:45:42;8.97;;;7.40;;
840;SDS011;406;48.566;13.450;2023-11-21T08:48:09;11.40;;;8.30;;
840;SDS011;406;48.566;13.450;2023-11-21T08:50:37;10.87;;;8.40;;
840;SDS011;406;48.566;13.450;2023-11-21T08:53:04;14.50;;;7.80;;
840;SDS011;406;48.566;13.450;2023-11-21T08:55:32;9.37;;;7.60;;
840;SDS011;406;48.566;13.450;2023-11-21T08:58:03;9.07;;;8.07;;
840;SDS011;406;48.566;13.450;2023-11-21T09:00:32;9.40;;;7.33;;
840;SDS011;406;48.566;13.450;2023-11-21T09:03:00;9.00;;;7.83;;
840;SDS011;406;48.566;13.450;2023-11-21T09:05:28;9.73;;;7.10;;
840;SDS011;406;48.566;13.450;2023-11-21T09:07:54;7.77;;;6.53;;
840;SDS011;406;48.566;13.450;2023-11-21T09:10:21;10.40;;;7.50;;
840;SDS011;406;48.566;13.450;2023-11-21T09:12:47;11.97;;;7.10;;
840;SDS011;406;48.566;13.450;2023-11-21T09:15:14;9.37;;;6.90;;
840;SDS011;406;48.566;13.450;2023-11-21T09:17:41;8.33;;;6.73;;
840;SDS011;406;48.566;13.450;2023-11-21T09:20:09;10.70;;;6.70;;
840;SDS011;406;48.566;13.450;2023-11-21T09:22:37;11.47;;;7.97;;
840;SDS011;406;48.566;13.450;2023-11-21T09:25:04;10.33;;;8.07;;
840;SDS011;406;48.566;13.450;2023-11-21T09:27:31;11.10;;;7.50;;
840;SDS011;406;48.566;13.450;2023-11-21T09:29:58;12.30;;;6.97;;
840;SDS011;406;48.566;13.450;2023-11-21T09:32:24;11.70;;;7.63;;
840;SDS011;406;48.566;13.450;2023-11-21T09:34:51;7.97;;;6.90;;
840;SDS011;406;48.566;13.450;2023-11-21T09:37:18;9.63;;;6.73;;
840;SDS011;406;48.566;13.450;2023-11-21T09:39:45;9.70;;;7.33;;
840;SDS011;406;48.566;13.450;2023-11-21T09:42:19;8.03;;;6.73;;
840;SDS011;406;48.566;13.450;2023-11-21T09:47:31;12.20;;;6.93;;
840;SDS011;406;48.566;13.450;2023-11-21T09:49:58;17.40;;;7.50;;
840;SDS011;406;48.566;13.450;2023-11-21T09:52:28;9.93;;;7.60;;
840;SDS011;406;48.566;13.450;2023-11-21T09:54:55;11.77;;;9.13;;
840;SDS011;406;48.566;13.450;2023-11-21T09:57:25;12.23;;;7.97;;
840;SDS011;406;48.566;13.450;2023-11-21T09:59:52;10.70;;;7.00;;
840;SDS011;406;48.566;13.450;2023-11-21T10:02:26;11.40;;;6.93;;
840;SDS011;406;48.566;13.450;2023-11-21T10:04:56;9.30;;;7.07;;
840;SDS011;406;48.566;13.450;2023-11-21T10:07:23;9.20;;;7.33;;
840;SDS011;406;48.566;13.450;2023-11-21T10:09:50;8.87;;;7.10;;
840;SDS011;406;48.566;13.450;2023-11-21T10:12:17;8.00;;;6.60;;
840;SDS011;406;48.566;13.450;2023-11-21T10:14:44;8.63;;;6.30;;
840;SDS011;406;48.566;13.450;2023-11-21T10:17:12;9.20;;;6.63;;
840;SDS011;406;48.566;13.450;2023-11-21T10:19:42;9.80;;;7.40;;
840;SDS011;406;48.566;13.450;2023-11-21T10:22:09;7.63;;;6.27;;
840;SDS011;406;48.566;13.450;2023-11-21T10:24:35;8.70;;;6.23;;
840;SDS011;406;48.566;13.450;2023-11-21T10:27:14;7.30;;;6.33;;
840;SDS011;406;48.566;13.450;2023-11-21T10:29:40;8.90;;;5.93;;
840;SDS011;406;48.566;13.450;2023-11-21T10:32:08;7.30;;;5.40;;
840;SDS011;406;48.566;13.450;2023-11-21T10:34:34;5.93;;;5.03;;
840;SDS011;406;48.566;13.450;2023-11-21T10:37:10;8.03;;;5.47;;
840;SDS011;406;48.566;13.450;2023-11-21T10:39:38;7.47;;;5.40;;
840;SDS011;406;48.566;13.450;2023-11-21T10:42:07;8.33;;;5.20;;
840;SDS011;406;48.566;13.450;2023-11-21T10:44:34;11.27;;;5.90;;
840;SDS011;406;48.566;13.450;2023-11-21T10:47:01;7.10;;;5.40;;
840;SDS011;406;48.566;13.450;2023-11-21T10:49:29;10.93;;;6.20;;
840;SDS011;406;48.566;13.450;2023-11-21T10:51:55;8.13;;;5.13;;
840;SDS011;406;48.566;13.450;2023-11-21T10:54:24;7.43;;;5.33;;
840;SDS011;406;48.566;13.450;2023-11-21T10:56:53;9.80;;;5.00;;
840;SDS011;406;48.566;13.450;2023-11-21T10:59:23;7.00;;;5.00;;
840;SDS011;406;48.566;13.450;2023-11-21T11:01:51;8.37;;;5.67;;
840;SDS011;406;48.566;13.450;2023-11-21T11:04:21;5.10;;;3.80;;
840;SDS011;406;48.566;13.450;2023-11-21T11:06:50;4.90;;;4.00;;
840;SDS011;406;48.566;13.450;2023-11-21T11:09:18;5.60;;;3.20;;
840;SDS011;406;48.566;13.450;2023-11-21T11:11:45;6.47;;;4.20;;
840;SDS011;406;48.566;13.450;2023-11-21T11:14:13;4.90;;;4.03;;
840;SDS011;406;48.566;13.450;2023-11-21T11:16:40;5.73;;;3.40;;
840;SDS011;406;48.566;13.450;2023-11-21T11:19:07;4.50;;;3.37;;
840;SDS011;406;48.566;13.450;2023-11-21T11:33:14;4.90;;;3.10;;
840;SDS011;406;48.566;13.450;2023-11-21T11:38:23;5.90;;;2.97;;
840;SDS011;406;48.566;13.450;2023-11-21T11:40:52;4.97;;;3.73;;
840;SDS011;406;48.566;13.450;2023-11-21T11:43:26;4.57;;;3.20;;
840;SDS011;406;48.566;13.450;2023-11-21T11:45:56;5.33;;;2.93;;
840;SDS011;406;48.566;13.450;2023-11-21T11:48:25;4.50;;;3.00;;
840;SDS011;406;48.566;13.450;2023-11-21T11:51:05;7.63;;;3.40;;
840;SDS011;406;48.566;13.450;2023-11-21T11:53:35;3.37;;;3.00;;
840;SDS011;406;48.566;13.450;2023-11-21T11:58:58;4.97;;;3.37;;
840;SDS011;406;48.566;13.450;2023-11-21T12:01:26;5.10;;;2.63;;
840;SDS011;406;48.566;13.450;2023-11-21T12:06:40;4.43;;;2.87;;
840;SDS011;406;48.566;13.450;2023-11-21T12:09:12;3.27;;;2.93;;
840;SDS011;406;48.566;13.450;2023-11-21T12:11:45;4.60;;;3.00;;
840;SDS011;406;48.566;13.450;2023-11-21T12:14:13;5.93;;;3.00;;
840;SDS011;406;48.566;13.450;2023-11-21T12:16:40;5.73;;;3.20;;
840;SDS011;406;48.566;13.450;2023-11-21T12:19:06;4.23;;;3.30;;
840;SDS011;406;48.566;13.450;2023-11-21T12:21:33;7.07;;;3.20;;
840;SDS011;406;48.566;13.450;2023-11-21T12:24:00;4.57;;;3.10;;
840;SDS011;406;48.566;13.450;2023-11-21T12:26:26;4.40;;;3.13;;
840;SDS011;406;48.566;13.450;2023-11-21T12:28:53;3.10;;;2.80;;
840;SDS011;406;48.566;13.450;2023-11-21T12:31:23;4.83;;;3.77;;
840;SDS011;406;48.566;13.450;2023-11-21T12:33:50;4.20;;;2.83;;
840;SDS011;406;48.566;13.450;2023-11-21T12:36:18;4.70;;;3.20;;
840;SDS011;406;48.566;13.450;2023-11-21T12:38:45;5.17;;;3.60;;
840;SDS011;406;48.566;13.450;2023-11-21T12:41:11;5.03;;;3.20;;
840;SDS011;406;48.566;13.450;2023-11-21T12:43:38;9.07;;;2.67;;
840;SDS011;406;48.566;13.450;2023-11-21T12:46:06;3.43;;;2.97;;
840;SDS011;406;48.566;13.450;2023-11-21T12:48:33;3.63;;;3.33;;
840;SDS011;406;48.566;13.450;2023-11-21T12:51:00;5.97;;;3.47;;
840;SDS011;406;48.566;13.450;2023-11-21T12:53:29;4.07;;;2.83;;
840;SDS011;406;48.566;13.450;2023-11-21T12:56:05;4.63;;;2.70;;
840;SDS011;406;48.566;13.450;2023-11-21T12:58:39;4.40;;;2.80;;
840;SDS011;406;48.566;13.450;2023-11-21T13:01:07;2.77;;;2.43;;
840;SDS011;406;48.566;13.450;2023-11-21T13:03:48;4.50;;;3.10;;
840;SDS011;406;48.566;13.450;2023-11-21T13:06:17;4.67;;;3.33;;
840;SDS011;406;48.566;13.450;2023-11-21T13:08:44;3.40;;;2.83;;
840;SDS011;406;48.566;13.450;2023-11-21T13:11:11;5.50;;;3.63;;
840;SDS011;406;48.566;13.450;2023-11-21T13:13:41;5.40;;;3.23;;
840;SDS011;406;48.566;13.450;2023-11-21T13:16:09;3.80;;;2.90;;
840;SDS011;406;48.566;13.450;2023-11-21T13:18:36;3.10;;;2.80;;
840;SDS011;406;48.566;13.450;2023-11-21T13:21:04;4.30;;;2.90;;
840;SDS011;406;48.566;13.450;2023-11-21T13:23:38;3.67;;;2.73;;
840;SDS011;406;48.566;13.450;2023-11-21T13:26:07;3.60;;;2.97;;
840;SDS011;406;48.566;13.450;2023-11-21T13:28:35;5.17;;;3.40;;
840;SDS011;406;48.566;13.450;2023-11-21T13:31:04;4.40;;;3.80;;
840;SDS011;406;48.566;13.450;2023-11-21T13:33:48;6.13;;;3.07;;
840;SDS011;406;48.566;13.450;2023-11-21T13:36:23;4.40;;;3.03;;
840;SDS011;406;48.566;13.450;2023-11-21T13:38:50;5.10;;;3.57;;
840;SDS011;406;48.566;13.450;2023-11-21T13:41:18;5.83;;;3.10;;
840;SDS011;406;48.566;13.450;2023-11-21T13:43:46;3.80;;;2.80;;
840;SDS011;406;48.566;13.450;2023-11-21T13:46:16;4.83;;;3.13;;
840;SDS011;406;48.566;13.450;2023-11-21T13:48:49;4.03;;;3.17;;
840;SDS011;406;48.566;13.450;2023-11-21T13:51:23;4.37;;;3.17;;
840;SDS011;406;48.566;13.450;2023-11-21T13:53:58;3.47;;;2.67;;
840;SDS011;406;48.566;13.450;2023-11-21T13:56:25;4.07;;;2.63;;
840;SDS011;406;48.566;13.450;2023-11-21T13:58:52;3.20;;;2.70;;
840;SDS011;406;48.566;13.450;2023-11-21T14:01:24;4.03;;;2.60;;
840;SDS011;406;48.566;13.450;2023-11-21T14:03:56;4.13;;;2.57;;
840;SDS011;406;48.566;13.450;2023-11-21T14:06:28;3.73;;;2.60;;
840;SDS011;406;48.566;13.450;2023-11-21T14:09:02;2.70;;;2.23;;
840;SDS011;406;48.566;13.450;2023-11-21T14:11:32;6.63;;;2.60;;
840;SDS011;406;48.566;13.450;2023-11-21T14:14:08;3.53;;;2.40;;
840;SDS011;406;48.566;13.450;2023-11-21T14:16:36;3.13;;;2.43;;
840;SDS011;406;48.566;13.450;2023-11-21T14:19:02;6.07;;;2.87;;
840;SDS011;406;48.566;13.450;2023-11-21T14:21:31;3.73;;;2.80;;
840;SDS011;406;48.566;13.450;2023-11-21T14:23:58;5.70;;;3.37;;
840;SDS011;406;48.566;13.450;2023-11-21T14:26:24;7.30;;;3.40;;
840;SDS011;406;48.566;13.450;2023-11-21T14:28:51;3.37;;;3.07;;
840;SDS011;406;48.566;13.450;2023-11-21T14:31:19;3.50;;;2.60;;
840;SDS011;406;48.566;13.450;2023-11-21T14:33:46;4.90;;;3.40;;
840;SDS011;406;48.566;13.450;2023-11-21T14:36:12;11.10;;;3.77;;
840;SDS011;406;48.566;13.450;2023-11-21T14:38:39;4.10;;;3.43;;
840;SDS011;406;48.566;13.450;2023-11-21T14:41:06;4.00;;;3.60;;
840;SDS011;406;48.566;13.450;2023-11-21T14:43:37;5.87;;;3.50;;
840;SDS011;406;48.566;13.450;2023-11-21T14:46:05;3.93;;;3.17;;
840;SDS011;406;48.566;13.450;2023-11-21T14:48:36;4.70;;;2.80;;
840;SDS011;406;48.566;13.450;2023-11-21T14:51:23;3.57;;;3.10;;
840;SDS011;406;48.566;13.450;2023-11-21T14:53:58;3.47;;;2.37;;
840;SDS011;406;48.566;13.450;2023-11-21T14:56:33;3.10;;;2.43;;
840;SDS011;406;48.566;13.450;2023-11-21T14:59:01;6.37;;;3.50;;
840;SDS011;406;48.566;13.450;2023-11-21T15:01:41;5.00;;;3.50;;
840;SDS011;406;48.566;13.450;2023-11-21T15:04:22;7.07;;;4.17;;
840;SDS011;406;48.566;13.450;2023-11-21T15:07:05;4.00;;;2.70;;
840;SDS011;406;48.566;13.450;2023-11-21T15:09:32;4.60;;;3.03;;
840;SDS011;406;48.566;13.450;2023-11-21T15:11:59;4.50;;;3.60;;
840;SDS011;406;48.566;13.450;2023-11-21T15:14:38;4.90;;;3.33;;
840;SDS011;406;48.566;13.450;2023-11-21T15:17:05;5.20;;;3.87;;
840;SDS011;406;48.566;13.450;2023-11-21T15:19:32;5.40;;;3.73;;
840;SDS011;406;48.566;13.450;2023-11-21T15:21:58;5.90;;;3.60;;
840;SDS011;406;48.566;13.450;2023-11-21T15:24:25;4.90;;;3.43;;
840;SDS011;406;48.566;13.450;2023-11-21T15:26:52;3.57;;;3.27;;
840;SDS011;406;48.566;13.450;2023-11-21T15:29:19;5.77;;;3.00;;
840;SDS011;406;48.566;13.450;2023-11-21T15:31:48;4.60;;;3.47;;
840;SDS011;406;48.566;13.450;2023-11-21T15:34:15;5.43;;;3.10;;
840;SDS011;406;48.566;13.450;2023-11-21T15:36:42;5.23;;;3.40;;
840;SDS011;406;48.566;13.450;2023-11-21T15:39:08;4.87;;;4.10;;
840;SDS011;406;48.566;13.450;2023-11-21T15:41:39;3.90;;;3.20;;
840;SDS011;406;48.566;13.450;2023-11-21T15:44:06;4.73;;;4.30;;
840;SDS011;406;48.566;13.450;2023-11-21T15:46:37;6.37;;;4.10;;
840;SDS011;406;48.566;13.450;2023-11-21T15:49:07;6.10;;;3.87;;
840;SDS011;406;48.566;13.450;2023-11-21T15:51:39;3.80;;;3.43;;
840;SDS011;406;48.566;13.450;2023-11-21T15:54:06;4.67;;;4.20;;
840;SDS011;406;48.566;13.450;2023-11-21T15:56:33;6.80;;;4.70;;